Deer Park, AL (36529)

6:06 AM CDT on March 30, 2015 (GMT -0500)
York Hill Gulfcrest, Alabama | | Change Station
CLOSE
Current Station
Personal Weather Station
Location: Chunchula, AL
Elevation: 190 ft
Nearby Weather Stations

Elev 190 ft 30.99 °N, 88.24 °W | Updated 11 minutes ago

Partly Cloudy
Partly Cloudy
52.9 °F
Feels Like 52.9 °F
N
0.0
Wind Variable Wind from SSE

Today
High -- | Low -- °F
--% Chance of Precip.
Yesterday
High -- | Low -- °F
Precip. -- in
6:44 AM 7:11 PM
Waxing Gibbous, 79% visible
Pressure 30.20 in
Visibility 7.0 miles
Clouds Mostly Cloudy 3600 ft
Mostly Cloudy 25000 ft
Dew Point 51 °F
Humidity 92%
Rainfall 0.00 in
Snow Depth Not available.
UV 0 out of 12
Pollen 9.80 out of 12
Air Quality Not available.
Flu Activity Not available.
METAR KMOB 301056Z 00000KT 7SM BKN036 BKN250 16/15 A3021 RMK AO2 SLP227 T01560150

More Conditions Fewer Conditions

Pressure 30.20 in
Visibility 7.0 miles
Clouds Mostly Cloudy 3600 ft
Mostly Cloudy 25000 ft
Dew Point 51 °F
Humidity 92%
Rainfall 0.00 in
Snow Depth Not available.
UV 0 out of 12
Pollen 9.80 out of 12
Air Quality Not available.
Flu Activity Not available.
METAR KMOB 301056Z 00000KT 7SM BKN036 BKN250 16/15 A3021 RMK AO2 SLP227 T01560150

More Conditions Fewer Conditions

10-Day Weather Forecast

Almanac

Astronomy

Mar. 30, 2015 Rise Set
Actual Time
Civil Twilight
Nautical Twilight
Astronomical Twilight
Moon
Length of Visible Light
Length of Day
Tomorrow will be .
, % of the Moon is Illuminated

Today's Extremes

State Highs State Lows

Community

WunderPhotos

Upload Photos

1,809,456 photos uploaded!

WunderBlogs® & News

Nearby

Air Quality

  Air Quality AQ Index Pollutant
Not available.

Snow Depth

Station Depth Elevation

Earthquake Activity

City Distance Mag. Time & Date
Minimum magnitude displayed is 2.5.

Coastal Water Temperatures

Place Temperature

Stations

Nearby Weather Stations

Station Location Temp. Windchill Dew Point Humidity Wind Precip. Elev Updated Type